KFVX

Farmville Regional Airport

Farmville, Virginia, USA
METAR KFVX 170655Z AUTO 00000KT 1/4SM FG OVC003 04/04 A2992 RMK AO2 T00360036
Observed Flight Rules
Dec-17 @ 06:55 UTC (35 minutes ago) Instrument Flight Rules
Visibility Clouds Conditions
1/4 miles
  • Overcast at 300' AGL
  • Fog
Temperatures Readings
Current 4°C / 39°F
Dewpoint 4°C / 39°F
Humidity 100%
Altimeter 29.92" Hg
Pressure 1013 hPa
Elevation 125
METAR KFVX 170655Z AUTO 00000KT 1/4SM FG OVC003 04/04 A2992 RMK AO2 T00360036
Observed Flight Rules
Dec-17 @ 06:55 UTC
(35 minutes ago)
LIFR
Clouds
  • Overcast at 300' AGL
Conditions
  • Fog
Temperature Dewpoint
4°C / 39°F 4°C / 39°F
Humidity Altimeter Pressure
100% 29.92" Hg 1013 hPa